createdAt,value
2018-02-01T00:00:21.098Z,0
2018-02-01T00:01:20.572Z,0
2018-02-01T00:02:20.797Z,0
2018-02-01T00:03:21.011Z,0
2018-02-01T00:04:20.991Z,0
2018-02-01T00:05:20.465Z,0
2018-02-01T00:06:20.933Z,0
2018-02-01T00:07:20.901Z,0
2018-02-01T00:08:20.625Z,0
2018-02-01T00:09:20.841Z,0
2018-02-01T00:10:20.818Z,0
2018-02-01T00:11:20.536Z,0
2018-02-01T00:12:20.504Z,0
2018-02-01T00:13:20.480Z,0
2018-02-01T00:14:20.447Z,0
2018-02-01T00:15:20.415Z,0
2018-02-01T00:16:20.395Z,0
2018-02-01T00:17:20.412Z,0
2018-02-01T00:18:20.331Z,0
2018-02-01T00:19:20.544Z,0
2018-02-01T00:20:20.522Z,0
2018-02-01T00:21:20.486Z,0
2018-02-01T00:22:20.458Z,0
2018-02-01T00:23:20.430Z,0
2018-02-01T00:24:20.403Z,0
2018-02-01T00:25:20.375Z,0
2018-02-01T00:26:19.855Z,0
2018-02-01T00:27:20.313Z,0
2018-02-01T00:28:19.791Z,0
2018-02-01T00:29:20.009Z,0
2018-02-01T00:30:20.229Z,0
2018-02-01T00:31:20.203Z,0
2018-02-01T00:32:19.918Z,0
2018-02-01T00:33:19.692Z,0
2018-02-01T00:34:19.860Z,0
2018-02-01T00:35:20.087Z,0
2018-02-01T00:36:19.799Z,0
2018-02-01T00:37:19.770Z,0
2018-02-01T00:38:19.843Z,0
2018-02-01T00:39:19.951Z,0
2018-02-01T00:40:19.675Z,0
2018-02-01T00:41:19.892Z,0
2018-02-01T00:42:19.710Z,0
2018-02-01T00:43:19.830Z,0
2018-02-01T00:44:19.559Z,0
2018-02-01T00:45:19.524Z,0
2018-02-01T00:46:19.548Z,0
2018-02-01T00:47:19.471Z,0
2018-02-01T00:48:19.431Z,0
2018-02-01T00:49:19.413Z,0
2018-02-01T00:50:19.376Z,0
2018-02-01T00:51:19.347Z,0
2018-02-01T00:52:19.315Z,0
2018-02-01T00:53:19.532Z,0
2018-02-01T00:54:19.502Z,0
2018-02-01T00:55:19.475Z,0
2018-02-01T00:56:19.198Z,0
2018-02-01T00:57:18.931Z,0
2018-02-01T00:58:19.387Z,0
2018-02-01T00:59:19.107Z,0
2018-02-01T01:00:18.830Z,0
2018-02-01T01:01:19.052Z,0
2018-02-01T01:02:19.269Z,0
2018-02-01T01:03:19.233Z,0
2018-02-01T01:04:18.471Z,0
2018-02-01T01:05:18.935Z,0
2018-02-01T01:06:19.145Z,0
2018-02-01T01:07:18.866Z,0
2018-02-01T01:08:18.843Z,0
2018-02-01T01:09:18.810Z,0
2018-02-01T01:10:19.032Z,0
2018-02-01T01:11:18.996Z,0
2018-02-01T01:12:18.729Z,0
2018-02-01T01:13:18.450Z,0
2018-02-01T01:14:18.713Z,0
2018-02-01T01:15:18.886Z,0
2018-02-01T01:16:18.613Z,0
2018-02-01T01:17:18.573Z,0
2018-02-01T01:18:18.795Z,0
2018-02-01T01:19:18.865Z,0
2018-02-01T01:20:18.730Z,0
2018-02-01T01:21:18.700Z,0
2018-02-01T01:22:18.682Z,0
2018-02-01T01:23:18.689Z,0
2018-02-01T01:24:18.607Z,0
2018-02-01T01:25:18.574Z,0
2018-02-01T01:26:18.554Z,0
2018-02-01T01:27:18.516Z,0
2018-02-01T01:28:18.292Z,0
2018-02-01T01:29:18.465Z,0
2018-02-01T01:30:18.189Z,0
2018-02-01T01:31:18.401Z,0
2018-02-01T01:32:18.373Z,0
2018-02-01T01:33:18.104Z,0
2018-02-01T01:34:18.072Z,0
2018-02-01T01:35:18.336Z,0
2018-02-01T01:36:18.300Z,0
2018-02-01T01:37:18.220Z,0
2018-02-01T01:38:17.951Z,0
2018-02-01T01:39:17.910Z,0
2018-02-01T01:40:18.136Z,0
2018-02-01T01:41:18.097Z,0
2018-02-01T01:42:18.076Z,0
2018-02-01T01:43:18.041Z,0
2018-02-01T01:44:17.764Z,0
2018-02-01T01:45:17.992Z,0
2018-02-01T01:46:17.699Z,0
2018-02-01T01:47:17.181Z,0
2018-02-01T01:48:17.647Z,0
2018-02-01T01:49:17.380Z,0
2018-02-01T01:50:17.581Z,0
2018-02-01T01:51:17.310Z,0
2018-02-01T01:52:17.527Z,0
2018-02-01T01:53:17.256Z,0
2018-02-01T01:54:17.469Z,0
2018-02-01T01:55:17.435Z,0
2018-02-01T01:56:17.421Z,0
2018-02-01T01:57:17.678Z,0
2018-02-01T01:58:17.356Z,0
2018-02-01T01:59:17.576Z,0
2018-02-01T02:00:17.294Z,0
2018-02-01T02:01:17.014Z,0
2018-02-01T02:02:17.228Z,0
2018-02-01T02:03:17.447Z,0
2018-02-01T02:04:17.413Z,0
2018-02-01T02:05:17.148Z,0
2018-02-01T02:06:17.398Z,0
2018-02-01T02:07:17.322Z,0
2018-02-01T02:08:17.042Z,0
2018-02-01T02:09:17.259Z,0
2018-02-01T02:10:17.230Z,0
2018-02-01T02:11:16.714Z,0
2018-02-01T02:12:16.926Z,0
2018-02-01T02:13:17.144Z,0
2018-02-01T02:14:16.876Z,0
2018-02-01T02:15:16.870Z,0
2018-02-01T02:16:16.834Z,0
2018-02-01T02:17:16.783Z,0
2018-02-01T02:18:17.058Z,0
2018-02-01T02:19:16.965Z,0
2018-02-01T02:20:16.935Z,0
2018-02-01T02:21:16.416Z,0
2018-02-01T02:22:16.875Z,0
2018-02-01T02:23:16.845Z,0
2018-02-01T02:24:16.323Z,0
2018-02-01T02:25:16.779Z,0
2018-02-01T02:26:16.508Z,0
2018-02-01T02:27:16.721Z,0
2018-02-01T02:28:16.446Z,0
2018-02-01T02:29:16.414Z,0
2018-02-01T02:30:16.409Z,0
2018-02-01T02:31:16.359Z,0
2018-02-01T02:32:16.578Z,0
2018-02-01T02:33:16.556Z,0
2018-02-01T02:34:16.513Z,0
2018-02-01T02:35:16.244Z,0
2018-02-01T02:36:16.461Z,0
2018-02-01T02:37:16.425Z,0
2018-02-01T02:38:16.405Z,0
2018-02-01T02:39:16.368Z,0
2018-02-01T02:40:16.341Z,0
2018-02-01T02:41:16.060Z,0
2018-02-01T02:42:16.034Z,0
2018-02-01T02:43:16.250Z,0
2018-02-01T02:44:16.213Z,0
2018-02-01T02:45:16.208Z,0
2018-02-01T02:46:15.668Z,0
2018-02-01T02:47:15.390Z,0
2018-02-01T02:48:15.608Z,0
2018-02-01T02:49:16.062Z,0
2018-02-01T02:50:16.047Z,0
2018-02-01T02:51:16.016Z,0
2018-02-01T02:52:15.484Z,0
2018-02-01T02:53:15.951Z,0
2018-02-01T02:54:15.423Z,0
2018-02-01T02:55:15.982Z,0
2018-02-01T02:56:15.641Z,0
2018-02-01T02:57:15.827Z,0
2018-02-01T02:58:15.794Z,0
2018-02-01T02:59:15.031Z,0
2018-02-01T03:00:15.718Z,0
2018-02-01T03:01:15.465Z,0
2018-02-01T03:02:15.429Z,0
2018-02-01T03:03:15.643Z,0
2018-02-01T03:04:15.403Z,0
2018-02-01T03:05:15.887Z,0
2018-02-01T03:06:14.811Z,0
2018-02-01T03:07:15.275Z,0
2018-02-01T03:08:15.256Z,0
2018-02-01T03:09:15.216Z,0
2018-02-01T03:10:14.695Z,0
2018-02-01T03:11:14.910Z,0
2018-02-01T03:12:15.128Z,0
2018-02-01T03:13:14.852Z,0
2018-02-01T03:14:15.323Z,0
2018-02-01T03:15:15.141Z,0
2018-02-01T03:16:15.259Z,0
2018-02-01T03:17:14.724Z,0
2018-02-01T03:18:14.939Z,0
2018-02-01T03:19:14.913Z,0
2018-02-01T03:20:15.131Z,0
2018-02-01T03:21:15.098Z,0
2018-02-01T03:22:14.822Z,0
2018-02-01T03:23:14.552Z,0
2018-02-01T03:24:15.016Z,0
2018-02-01T03:25:14.734Z,0
2018-02-01T03:26:14.699Z,0
2018-02-01T03:27:14.673Z,0
2018-02-01T03:28:14.643Z,0
2018-02-01T03:29:14.621Z,0
2018-02-01T03:30:14.834Z,0
2018-02-01T03:31:14.555Z,0
2018-02-01T03:32:14.765Z,0
2018-02-01T03:33:14.520Z,0
2018-02-01T03:34:14.464Z,0
2018-02-01T03:35:14.683Z,0
2018-02-01T03:36:14.393Z,0
2018-02-01T03:37:14.613Z,0
2018-02-01T03:38:14.341Z,0
2018-02-01T03:39:14.554Z,0
2018-02-01T03:40:14.030Z,0
2018-02-01T03:41:14.247Z,0
2018-02-01T03:42:14.467Z,0
2018-02-01T03:43:14.436Z,0
2018-02-01T03:44:14.400Z,0
2018-02-01T03:45:14.129Z,0
2018-02-01T03:46:14.096Z,0
2018-02-01T03:47:13.820Z,0
2018-02-01T03:48:14.277Z,0
2018-02-01T03:49:14.260Z,0
2018-02-01T03:50:13.731Z,0
2018-02-01T03:51:13.950Z,0
2018-02-01T03:52:13.912Z,0
2018-02-01T03:53:14.132Z,0
2018-02-01T03:54:13.858Z,0
2018-02-01T03:55:13.821Z,0
2018-02-01T03:56:13.801Z,0
2018-02-01T03:57:14.005Z,0
2018-02-01T03:58:13.977Z,0
2018-02-01T03:59:13.455Z,0
2018-02-01T04:00:13.472Z,0
2018-02-01T04:01:13.885Z,0
2018-02-01T04:02:13.615Z,0
2018-02-01T04:03:13.589Z,0
2018-02-01T04:04:13.556Z,0
2018-02-01T04:05:13.516Z,0
2018-02-01T04:06:13.246Z,0
2018-02-01T04:07:13.214Z,0
2018-02-01T04:08:13.431Z,0
2018-02-01T04:09:13.403Z,0
2018-02-01T04:10:13.619Z,0
2018-02-01T04:11:13.094Z,0
2018-02-01T04:12:12.816Z,0
2018-02-01T04:13:13.298Z,0
2018-02-01T04:14:13.009Z,0
2018-02-01T04:15:13.463Z,0
2018-02-01T04:16:12.941Z,0
2018-02-01T04:17:13.206Z,0
2018-02-01T04:18:13.122Z,0
2018-02-01T04:19:12.850Z,0
2018-02-01T04:20:13.066Z,0
2018-02-01T04:21:12.794Z,0
2018-02-01T04:22:13.011Z,0
2018-02-01T04:23:13.219Z,0
2018-02-01T04:24:12.943Z,0
2018-02-01T04:25:12.670Z,0
2018-02-01T04:26:12.884Z,0
2018-02-01T04:27:13.097Z,0
2018-02-01T04:28:12.823Z,0
2018-02-01T04:29:13.034Z,0
2018-02-01T04:30:12.773Z,0
2018-02-01T04:31:12.732Z,0
2018-02-01T04:32:12.562Z,0
2018-02-01T04:33:12.429Z,0
2018-02-01T04:34:12.890Z,0
2018-02-01T04:35:12.613Z,0
2018-02-01T04:36:12.575Z,0
2018-02-01T04:37:12.793Z,0
2018-02-01T04:38:12.776Z,0
2018-02-01T04:39:12.484Z,0
2018-02-01T04:40:12.213Z,0
2018-02-01T04:41:12.673Z,0
2018-02-01T04:42:12.400Z,0
2018-02-01T04:43:12.365Z,0
2018-02-01T04:44:12.333Z,0
2018-02-01T04:45:12.436Z,0
2018-02-01T04:46:12.557Z,0
2018-02-01T04:47:12.492Z,0
2018-02-01T04:48:12.212Z,0
2018-02-01T04:49:12.185Z,0
2018-02-01T04:50:12.402Z,0
2018-02-01T04:51:12.369Z,0
2018-02-01T04:52:12.096Z,0
2018-02-01T04:53:12.064Z,0
2018-02-01T04:54:11.786Z,0
2018-02-01T04:55:11.757Z,0
2018-02-01T04:56:12.224Z,0
2018-02-01T04:57:12.188Z,0
2018-02-01T04:58:11.919Z,0
2018-02-01T04:59:11.882Z,0
2018-02-01T05:00:12.098Z,0
2018-02-01T05:01:11.813Z,0
2018-02-01T05:02:11.544Z,0
2018-02-01T05:03:11.761Z,0
2018-02-01T05:04:11.973Z,0
2018-02-01T05:05:11.943Z,0
2018-02-01T05:06:11.912Z,0
2018-02-01T05:07:11.925Z,0
2018-02-01T05:08:11.606Z,0
2018-02-01T05:09:11.574Z,0
2018-02-01T05:10:11.299Z,0
2018-02-01T05:11:11.514Z,0
2018-02-01T05:12:11.238Z,0
2018-02-01T05:13:11.201Z,0
2018-02-01T05:14:11.852Z,0
2018-02-01T05:15:11.633Z,0
2018-02-01T05:16:10.669Z,0
2018-02-01T05:17:11.568Z,0
2018-02-01T05:18:11.600Z,0
2018-02-01T05:19:11.512Z,0
2018-02-01T05:20:11.483Z,0
2018-02-01T05:21:11.206Z,0
2018-02-01T05:22:10.935Z,0
2018-02-01T05:23:11.142Z,0
2018-02-01T05:24:11.116Z,0
2018-02-01T05:25:11.084Z,0
2018-02-01T05:26:10.810Z,0
2018-02-01T05:27:11.018Z,0
2018-02-01T05:28:11.244Z,0
2018-02-01T05:29:10.960Z,0
2018-02-01T05:30:10.937Z,0
2018-02-01T05:31:10.902Z,0
2018-02-01T05:32:11.124Z,0
2018-02-01T05:33:10.842Z,0
2018-02-01T05:34:10.312Z,0
2018-02-01T05:35:10.287Z,0
2018-02-01T05:36:10.747Z,0
2018-02-01T05:37:10.223Z,0
2018-02-01T05:38:10.687Z,0
2018-02-01T05:39:10.418Z,0
2018-02-01T05:40:10.874Z,0
2018-02-01T05:41:10.597Z,0
2018-02-01T05:42:10.566Z,0
2018-02-01T05:43:10.784Z,0
2018-02-01T05:44:10.750Z,0
2018-02-01T05:45:10.482Z,0
2018-02-01T05:46:10.444Z,0
2018-02-01T05:47:10.420Z,0
2018-02-01T05:48:10.387Z,0
2018-02-01T05:49:10.592Z,0
2018-02-01T05:50:10.323Z,0
2018-02-01T05:51:10.286Z,0
2018-02-01T05:52:10.507Z,0
2018-02-01T05:53:09.984Z,0
2018-02-01T05:54:10.198Z,0
2018-02-01T05:55:10.166Z,0
2018-02-01T05:56:10.160Z,0
2018-02-01T05:57:10.357Z,0
2018-02-01T05:58:09.838Z,0
2018-02-01T05:59:10.285Z,0
2018-02-01T06:00:10.015Z,0
2018-02-01T06:01:09.741Z,0
2018-02-01T06:02:09.954Z,0
2018-02-01T06:03:10.258Z,0
2018-02-01T06:04:09.895Z,0
2018-02-01T06:05:09.916Z,0
2018-02-01T06:06:09.827Z,0
2018-02-01T06:07:09.801Z,0
2018-02-01T06:08:09.770Z,0
2018-02-01T06:09:09.496Z,0
2018-02-01T06:10:09.702Z,0
2018-02-01T06:11:09.922Z,0
2018-02-01T06:12:09.641Z,0
2018-02-01T06:13:09.870Z,0
2018-02-01T06:14:11.356Z,0
2018-02-01T06:15:11.491Z,0
2018-02-01T06:16:10.382Z,0
2018-02-01T06:17:09.740Z,0
2018-02-01T06:18:09.466Z,0
2018-02-01T06:19:09.785Z,0
2018-02-01T06:20:09.405Z,0
2018-02-01T06:21:09.608Z,0
2018-02-01T06:22:09.333Z,0
2018-02-01T06:23:09.311Z,0
2018-02-01T06:24:09.275Z,0
2018-02-01T06:25:08.999Z,0
2018-02-01T06:26:09.216Z,0
2018-02-01T06:27:09.429Z,0
2018-02-01T06:28:09.395Z,0
2018-02-01T06:29:09.385Z,0
2018-02-01T06:30:09.343Z,0
2018-02-01T06:31:09.059Z,0
2018-02-01T06:32:08.543Z,0
2018-02-01T06:33:09.312Z,0
2018-02-01T06:34:08.745Z,0
2018-02-01T06:35:09.194Z,0
2018-02-01T06:36:08.925Z,0
2018-02-01T06:37:09.126Z,0
2018-02-01T06:38:08.892Z,0
2018-02-01T06:39:08.571Z,0
2018-02-01T06:40:08.783Z,0
2018-02-01T06:41:08.998Z,0
2018-02-01T06:42:08.728Z,0
2018-02-01T06:43:08.744Z,0
2018-02-01T06:44:08.517Z,0
2018-02-01T06:45:08.885Z,0
2018-02-01T06:46:08.359Z,0
2018-02-01T06:47:08.823Z,0
2018-02-01T06:48:08.538Z,0
2018-02-01T06:49:08.544Z,0
2018-02-01T06:50:07.984Z,0
2018-02-01T06:51:08.446Z,0
2018-02-01T06:52:08.657Z,0
2018-02-01T06:53:08.660Z,0
2018-02-01T06:54:07.860Z,0
2018-02-01T06:55:08.579Z,0
2018-02-01T06:56:08.047Z,0
2018-02-01T06:57:08.510Z,0
2018-02-01T06:58:08.230Z,5
2018-02-01T06:59:07.951Z,5
2018-02-01T07:00:07.935Z,5
2018-02-01T07:01:07.921Z,5
2018-02-01T07:02:08.118Z,5
2018-02-01T07:03:08.327Z,5
2018-02-01T07:04:07.802Z,10
2018-02-01T07:05:08.264Z,10
2018-02-01T07:06:08.239Z,10
2018-02-01T07:07:08.207Z,10
2018-02-01T07:08:07.927Z,10
2018-02-01T07:09:07.895Z,15
2018-02-01T07:10:07.883Z,15
2018-02-01T07:11:08.084Z,15
2018-02-01T07:12:08.058Z,20
2018-02-01T07:13:07.540Z,20
2018-02-01T07:14:07.740Z,25
2018-02-01T07:15:09.155Z,25
2018-02-01T07:16:08.794Z,25
2018-02-01T07:17:08.517Z,30
2018-02-01T07:18:07.883Z,30
2018-02-01T07:19:07.344Z,35
2018-02-01T07:20:07.565Z,35
2018-02-01T07:21:07.288Z,40
2018-02-01T07:22:08.166Z,40
2018-02-01T07:23:08.389Z,45
2018-02-01T07:24:08.789Z,45
2018-02-01T07:25:07.740Z,45
2018-02-01T07:26:07.693Z,45
2018-02-01T07:27:07.098Z,45
2018-02-01T07:28:07.073Z,50
2018-02-01T07:29:07.547Z,50
2018-02-01T07:30:07.360Z,55
2018-02-01T07:31:07.228Z,60
2018-02-01T07:32:06.957Z,60
2018-02-01T07:33:06.920Z,60
2018-02-01T07:34:07.386Z,65
2018-02-01T07:35:07.112Z,70
2018-02-01T07:36:07.077Z,70
2018-02-01T07:37:07.295Z,75
2018-02-01T07:38:07.034Z,80
2018-02-01T07:39:07.236Z,80
2018-02-01T07:40:06.953Z,80
2018-02-01T07:41:07.335Z,80
2018-02-01T07:42:06.895Z,85
2018-02-01T07:43:07.113Z,85
2018-02-01T07:44:06.830Z,90
2018-02-01T07:45:07.076Z,90
2018-02-01T07:46:06.872Z,95
2018-02-01T07:47:07.168Z,95
2018-02-01T07:48:07.238Z,110
2018-02-01T07:49:07.116Z,110
2018-02-01T07:50:06.833Z,125
2018-02-01T07:51:06.632Z,130
2018-02-01T07:52:07.062Z,135
2018-02-01T07:53:06.963Z,140
2018-02-01T07:54:06.876Z,130
2018-02-01T07:55:06.509Z,120
2018-02-01T07:56:06.468Z,115
2018-02-01T07:57:06.705Z,120
2018-02-01T07:58:06.761Z,120
2018-02-01T07:59:06.663Z,120
2018-02-01T08:00:06.554Z,125
2018-02-01T08:01:06.386Z,135
2018-02-01T08:02:06.328Z,145
2018-02-01T08:03:06.513Z,145
2018-02-01T08:04:06.234Z,145
2018-02-01T08:05:06.200Z,155
2018-02-01T08:06:05.679Z,160
2018-02-01T08:07:06.399Z,160
2018-02-01T08:08:06.361Z,160
2018-02-01T08:09:06.333Z,155
2018-02-01T08:10:06.112Z,155
2018-02-01T08:11:06.290Z,155
2018-02-01T08:12:06.244Z,155
2018-02-01T08:13:06.001Z,155
2018-02-01T08:14:06.181Z,160
2018-02-01T08:15:06.171Z,160
2018-02-01T08:16:06.166Z,170
2018-02-01T08:17:07.625Z,170
2018-02-01T08:18:06.066Z,170
2018-02-01T08:19:05.797Z,170
2018-02-01T08:20:06.243Z,175
2018-02-01T08:21:06.375Z,175
2018-02-01T08:22:06.966Z,180
2018-02-01T08:23:05.448Z,185
2018-02-01T08:24:05.638Z,185
2018-02-01T08:25:06.940Z,185
2018-02-01T08:26:09.382Z,185
2018-02-01T08:27:07.452Z,185
2018-02-01T08:28:06.468Z,185
2018-02-01T08:29:07.894Z,190
2018-02-01T08:30:06.846Z,190
2018-02-01T08:31:06.957Z,190
2018-02-01T08:32:07.844Z,195
2018-02-01T08:33:06.540Z,195
2018-02-01T08:34:05.350Z,200
2018-02-01T08:35:05.571Z,200
2018-02-01T08:36:05.287Z,200
2018-02-01T08:37:05.514Z,200
2018-02-01T08:38:05.230Z,200
2018-02-01T08:39:05.201Z,210
2018-02-01T08:40:05.420Z,205
2018-02-01T08:41:05.602Z,205
2018-02-01T08:42:05.399Z,205
2018-02-01T08:43:05.077Z,210
2018-02-01T08:44:05.051Z,210
2018-02-01T08:45:05.329Z,210
2018-02-01T08:46:05.046Z,210
2018-02-01T08:47:05.211Z,210
2018-02-01T08:48:05.205Z,215
2018-02-01T08:49:05.152Z,215
2018-02-01T08:50:05.140Z,215
2018-02-01T08:51:05.659Z,220
2018-02-01T08:52:05.064Z,220
2018-02-01T08:53:05.036Z,220
2018-02-01T08:54:04.789Z,220
2018-02-01T08:55:04.974Z,220
2018-02-01T08:56:04.949Z,225
2018-02-01T08:57:04.921Z,225
2018-02-01T08:58:04.774Z,225
2018-02-01T08:59:04.857Z,225
2018-02-01T09:00:04.844Z,230
2018-02-01T09:01:04.312Z,230
2018-02-01T09:02:04.280Z,230
2018-02-01T09:03:04.749Z,235
2018-02-01T09:04:04.222Z,235
2018-02-01T09:05:04.434Z,235
2018-02-01T09:06:04.804Z,235
2018-02-01T09:07:04.375Z,235
2018-02-01T09:08:04.600Z,245
2018-02-01T09:09:04.070Z,240
2018-02-01T09:10:04.569Z,245
2018-02-01T09:11:04.272Z,240
2018-02-01T09:12:04.480Z,245
2018-02-01T09:13:04.563Z,245
2018-02-01T09:14:04.467Z,245
2018-02-01T09:15:04.144Z,250
2018-02-01T09:16:04.211Z,255
2018-02-01T09:17:04.178Z,265
2018-02-01T09:18:04.102Z,255
2018-02-01T09:19:04.703Z,245
2018-02-01T09:20:03.998Z,265
2018-02-01T09:21:04.244Z,310
2018-02-01T09:22:04.025Z,355
2018-02-01T09:23:05.323Z,360
2018-02-01T09:24:05.003Z,355
2018-02-01T09:25:05.622Z,370
2018-02-01T09:26:04.298Z,350
2018-02-01T09:27:04.730Z,330
2018-02-01T09:28:03.775Z,355
2018-02-01T09:29:03.891Z,345
2018-02-01T09:34:09.591Z,380
2018-02-01T09:35:03.812Z,365
2018-02-01T09:36:03.799Z,330
2018-02-01T09:37:03.264Z,310
2018-02-01T09:38:03.682Z,295
2018-02-01T09:39:03.461Z,320
2018-02-01T09:40:03.432Z,300
2018-02-01T09:41:03.663Z,280
2018-02-01T09:42:03.437Z,295
2018-02-01T09:43:03.360Z,270
2018-02-01T09:44:03.332Z,265
2018-02-01T09:45:03.548Z,250
2018-02-01T09:46:03.569Z,235
2018-02-01T09:47:03.247Z,270
2018-02-01T09:48:03.220Z,255
2018-02-01T09:49:03.193Z,250
2018-02-01T09:50:03.403Z,260
2018-02-01T09:51:02.880Z,270
2018-02-01T09:52:03.099Z,270
2018-02-01T09:53:03.077Z,335
2018-02-01T09:54:03.300Z,405
2018-02-01T09:55:03.269Z,450
2018-02-01T09:56:03.238Z,505
2018-02-01T09:57:02.968Z,470
2018-02-01T09:58:03.197Z,445
2018-02-01T09:59:03.228Z,465
2018-02-01T10:00:03.203Z,475
2018-02-01T10:01:03.437Z,445
2018-02-01T10:02:02.832Z,470
2018-02-01T10:03:03.079Z,465
2018-02-01T10:04:02.772Z,455
2018-02-01T10:05:02.741Z,440
2018-02-01T10:06:02.969Z,440
2018-02-01T10:07:02.943Z,445
2018-02-01T10:08:02.214Z,455
2018-02-01T10:09:03.869Z,470
2018-02-01T10:10:02.573Z,460
2018-02-01T10:11:02.588Z,505
2018-02-01T10:12:02.320Z,485
2018-02-01T10:13:02.546Z,475
2018-02-01T10:14:02.759Z,495
2018-02-01T10:15:02.727Z,475
2018-02-01T10:16:02.710Z,420
2018-02-01T10:17:02.441Z,395
2018-02-01T10:18:02.606Z,400
2018-02-01T10:19:02.128Z,410
2018-02-01T10:20:02.601Z,410
2018-02-01T10:21:02.328Z,380
2018-02-01T10:22:02.543Z,355
2018-02-01T10:23:02.521Z,350
2018-02-01T10:24:02.248Z,345
2018-02-01T10:25:02.514Z,325
2018-02-01T10:26:01.944Z,240
2018-02-01T10:27:02.445Z,260
2018-02-01T10:31:51.705Z,390
2018-02-01T10:32:01.801Z,415
2018-02-01T10:33:02.261Z,455
2018-02-01T10:34:01.986Z,430
2018-02-01T10:35:01.732Z,415
2018-02-01T10:36:02.176Z,360
2018-02-01T10:37:01.679Z,385
2018-02-01T10:38:01.628Z,340
2018-02-01T10:39:01.850Z,260
2018-02-01T10:40:02.081Z,285
2018-02-01T10:41:02.044Z,420
2018-02-01T10:42:02.113Z,445
2018-02-01T10:43:01.496Z,465
2018-02-01T10:44:01.713Z,470
2018-02-01T10:45:01.478Z,500
2018-02-01T10:46:01.914Z,495
2018-02-01T10:47:01.889Z,435
2018-02-01T10:48:01.609Z,425
2018-02-01T10:49:01.109Z,470
2018-02-01T10:50:33.448Z,460
2018-02-01T10:51:01.544Z,475
2018-02-01T10:52:02.502Z,560
2018-02-01T10:53:01.506Z,580
2018-02-01T10:54:02.259Z,575
2018-02-01T10:55:01.189Z,540
2018-02-01T10:56:01.413Z,560
2018-02-01T10:57:01.375Z,505
2018-02-01T10:58:01.610Z,400
2018-02-01T10:59:01.129Z,490
2018-02-01T11:00:00.904Z,545
2018-02-01T11:01:01.523Z,485
2018-02-01T11:02:01.258Z,430
2018-02-01T11:03:01.224Z,425
2018-02-01T11:04:01.201Z,365
2018-02-01T11:05:00.733Z,295
2018-02-01T11:06:01.446Z,225
2018-02-01T11:07:00.934Z,180
2018-02-01T11:08:01.348Z,210
2018-02-01T11:09:01.321Z,290
2018-02-01T11:10:01.044Z,305
2018-02-01T11:11:01.228Z,245
2018-02-01T11:12:00.992Z,240
2018-02-01T11:13:00.978Z,270
2018-02-01T11:14:01.190Z,290
2018-02-01T11:15:01.165Z,285
2018-02-01T11:16:00.886Z,285
2018-02-01T11:17:00.868Z,375
2018-02-01T11:18:00.837Z,405
2018-02-01T11:19:00.582Z,360
2018-02-01T11:20:01.072Z,365
2018-02-01T11:21:00.753Z,435
2018-02-01T11:22:00.969Z,390
2018-02-01T11:23:00.696Z,325
2018-02-01T11:24:00.914Z,320
2018-02-01T11:25:00.647Z,420
2018-02-01T11:26:00.909Z,460
2018-02-01T11:27:00.594Z,410
2018-02-01T11:28:00.931Z,390
2018-02-01T11:29:00.841Z,385
2018-02-01T11:30:00.632Z,400
2018-02-01T11:31:00.323Z,400
2018-02-01T11:32:00.711Z,415
2018-02-01T11:33:00.195Z,420
2018-02-01T11:34:00.423Z,430
2018-02-01T11:35:00.403Z,400
2018-02-01T11:36:00.367Z,360
2018-02-01T11:37:00.089Z,390
2018-02-01T11:38:00.408Z,405
2018-02-01T11:39:00.531Z,425
2018-02-01T11:40:00.502Z,430
2018-02-01T11:41:00.225Z,400
2018-02-01T11:42:01.180Z,410
2018-02-01T11:43:00.177Z,410
2018-02-01T11:44:00.320Z,485
2018-02-01T11:45:00.434Z,480
2018-02-01T11:46:00.398Z,465
2018-02-01T11:46:59.844Z,445
2018-02-01T11:47:59.803Z,375
2018-02-01T11:49:00.028Z,370
2018-02-01T11:49:59.994Z,420
2018-02-01T11:50:59.978Z,415
2018-02-01T11:52:00.189Z,430
2018-02-01T11:53:00.168Z,435
2018-02-01T11:54:00.138Z,415
2018-02-01T11:54:59.622Z,405
2018-02-01T11:56:00.137Z,405
2018-02-01T11:56:59.979Z,355
2018-02-01T11:57:59.930Z,315
2018-02-01T11:58:59.896Z,285
2018-02-01T11:59:59.352Z,255
2018-02-01T12:00:59.713Z,330
2018-02-01T12:02:00.275Z,375
2018-02-01T12:02:59.892Z,410
2018-02-01T12:03:59.991Z,440
2018-02-01T12:04:59.717Z,455
2018-02-01T12:05:59.338Z,480
2018-02-01T12:06:59.808Z,495
2018-02-01T12:07:59.539Z,505
2018-02-01T12:08:59.790Z,530
2018-02-01T12:09:59.731Z,495
2018-02-01T12:10:59.703Z,480
2018-02-01T12:11:59.675Z,460
2018-02-01T12:12:59.412Z,490
2018-02-01T12:13:59.386Z,500
2018-02-01T12:14:59.109Z,510
2018-02-01T12:15:59.076Z,500
2018-02-01T12:16:59.050Z,480
2018-02-01T12:17:59.526Z,485
2018-02-01T12:18:59.296Z,440
2018-02-01T12:19:59.472Z,445
2018-02-01T12:20:59.445Z,455
2018-02-01T12:21:59.420Z,465
2018-02-01T12:22:59.398Z,445
2018-02-01T12:23:58.881Z,460
2018-02-01T12:24:59.342Z,540
2018-02-01T12:25:59.074Z,525
2018-02-01T12:26:59.290Z,495
2018-02-01T12:27:59.025Z,505
2018-02-01T12:28:58.747Z,480
2018-02-01T12:29:58.477Z,485
2018-02-01T12:30:59.203Z,460
2018-02-01T12:31:58.954Z,435
2018-02-01T12:32:58.895Z,405
2018-02-01T12:33:59.489Z,400
2018-02-01T12:34:58.638Z,460
2018-02-01T12:35:58.817Z,515
2018-02-01T12:36:59.050Z,490
2018-02-01T12:37:58.761Z,445
2018-02-01T12:38:58.772Z,425
2018-02-01T12:39:58.721Z,390
2018-02-01T12:40:58.936Z,355
2018-02-01T12:41:58.660Z,320
2018-02-01T12:42:58.885Z,265
2018-02-01T12:43:59.132Z,230
2018-02-01T12:44:59.227Z,220
2018-02-01T12:45:59.867Z,225
2018-02-01T12:46:58.694Z,205
2018-02-01T12:47:59.536Z,235
2018-02-01T12:48:58.491Z,265
2018-02-01T12:49:58.462Z,285
2018-02-01T12:50:58.686Z,265
2018-02-01T12:51:58.411Z,255
2018-02-01T12:52:58.379Z,250
2018-02-01T12:53:58.361Z,230
2018-02-01T12:54:58.580Z,210
2018-02-01T12:55:58.568Z,190
2018-02-01T12:56:58.035Z,205
2018-02-01T12:57:58.254Z,225
2018-02-01T12:58:58.477Z,235
2018-02-01T12:59:58.443Z,265
2018-02-01T13:00:58.180Z,285
2018-02-01T13:01:58.150Z,335
2018-02-01T13:02:58.123Z,420
2018-02-01T13:03:57.864Z,435
2018-02-01T13:04:58.323Z,415
2018-02-01T13:05:58.297Z,395
2018-02-01T13:06:58.021Z,365
2018-02-01T13:07:58.237Z,350
2018-02-01T13:08:58.204Z,330
2018-02-01T13:09:58.178Z,310
2018-02-01T13:10:58.152Z,310
2018-02-01T13:11:58.135Z,295
2018-02-01T13:12:58.155Z,295
2018-02-01T13:13:58.079Z,295
2018-02-01T13:14:58.049Z,310
2018-02-01T13:15:57.536Z,300
2018-02-01T13:16:57.753Z,275
2018-02-01T13:17:57.325Z,280
2018-02-01T13:18:57.700Z,280
2018-02-01T13:19:57.912Z,290
2018-02-01T13:20:57.705Z,290
2018-02-01T13:21:57.863Z,260
2018-02-01T13:22:57.593Z,230
2018-02-01T13:23:57.813Z,205
2018-02-01T13:24:57.536Z,185
2018-02-01T13:25:57.768Z,165
2018-02-01T13:26:57.730Z,150
2018-02-01T13:27:57.212Z,135
2018-02-01T13:28:57.443Z,130
2018-02-01T13:29:57.650Z,115
2018-02-01T13:30:57.624Z,110
2018-02-01T13:31:57.364Z,110
2018-02-01T13:32:57.321Z,105
2018-02-01T13:33:57.295Z,100
2018-02-01T13:34:57.267Z,85
2018-02-01T13:35:57.490Z,70
2018-02-01T13:36:57.212Z,60
2018-02-01T13:37:57.192Z,60
2018-02-01T13:38:57.412Z,65
2018-02-01T13:39:56.937Z,70
2018-02-01T13:40:57.102Z,75
2018-02-01T13:41:57.322Z,90
2018-02-01T13:42:57.310Z,100
2018-02-01T13:43:57.019Z,135
2018-02-01T13:44:56.748Z,170
2018-02-01T13:45:56.717Z,170
2018-02-01T13:46:57.194Z,185
2018-02-01T13:47:56.915Z,195
2018-02-01T13:48:56.891Z,210
2018-02-01T13:49:56.868Z,240
2018-02-01T13:50:57.077Z,285
2018-02-01T13:51:57.046Z,335
2018-02-01T13:52:56.531Z,390
2018-02-01T13:53:56.750Z,425
2018-02-01T13:54:57.016Z,455
2018-02-01T13:55:56.464Z,390
2018-02-01T13:56:56.923Z,310
2018-02-01T13:57:56.638Z,295
2018-02-01T13:58:56.622Z,325
2018-02-01T13:59:56.831Z,330
2018-02-01T14:00:56.806Z,285
2018-02-01T14:01:56.779Z,315
2018-02-01T14:02:56.778Z,325
2018-02-01T14:03:56.480Z,265
2018-02-01T14:04:56.696Z,190
2018-02-01T14:05:56.673Z,200
2018-02-01T14:06:56.392Z,205
2018-02-01T14:07:56.704Z,255
2018-02-01T14:08:56.099Z,265
2018-02-01T14:09:56.558Z,265
2018-02-01T14:10:56.290Z,305
2018-02-01T14:11:56.563Z,360
2018-02-01T14:12:55.985Z,345
2018-02-01T14:13:56.501Z,325
2018-02-01T14:14:55.932Z,340
2018-02-01T14:15:56.153Z,345
2018-02-01T14:16:56.131Z,310
2018-02-01T14:17:56.341Z,250
2018-02-01T14:18:56.071Z,225
2018-02-01T14:19:56.048Z,205
2018-02-01T14:20:56.014Z,195
2018-02-01T14:21:56.235Z,180
2018-02-01T14:22:56.274Z,155
2018-02-01T14:23:56.183Z,150